createdAt,value
2019-03-22T00:01:18.229Z,102776.77
2019-03-22T00:03:48.436Z,102779.55
2019-03-22T00:06:18.714Z,102776.13
2019-03-22T00:08:48.995Z,102776.70
2019-03-22T00:11:19.203Z,102772.78
2019-03-22T00:13:49.398Z,102772.78
2019-03-22T00:16:19.613Z,102767.18
2019-03-22T00:18:49.821Z,102770.28
2019-03-22T00:21:20.044Z,102764.27
2019-03-22T00:23:50.259Z,102761.16
2019-03-22T00:26:20.486Z,102767.50
2019-03-22T00:28:50.698Z,102758.81
2019-03-22T00:31:20.932Z,102759.67
2019-03-22T00:33:51.148Z,102758.76
2019-03-22T00:36:21.372Z,102758.86
2019-03-22T00:38:51.584Z,102756.81
2019-03-22T00:41:21.816Z,102756.55
2019-03-22T00:43:52.085Z,102752.64
2019-03-22T00:46:22.308Z,102751.21
2019-03-22T00:48:52.520Z,102751.11
2019-03-22T00:51:22.745Z,102757.58
2019-03-22T00:53:52.997Z,102751.92
2019-03-22T00:56:23.261Z,102748.50
2019-03-22T00:58:53.464Z,102758.87
2019-03-22T01:01:23.694Z,102756.75
2019-03-22T01:03:53.911Z,102752.91
2019-03-22T01:06:24.119Z,102758.13
2019-03-22T01:08:54.330Z,102757.31
2019-03-22T01:11:24.553Z,102766.54
2019-03-22T01:13:54.751Z,102759.70
2019-03-22T01:16:25.116Z,102763.61
2019-03-22T01:18:55.399Z,102760.63
2019-03-22T01:21:25.624Z,102762.87
2019-03-22T01:23:55.847Z,102759.28
2019-03-22T01:26:26.067Z,102755.37
2019-03-22T01:28:56.272Z,102751.38
2019-03-22T01:31:26.494Z,102753.08
2019-03-22T01:33:56.703Z,102750.79
2019-03-22T01:36:26.919Z,102752.02
2019-03-22T01:38:57.148Z,102746.81
2019-03-22T01:41:27.355Z,102745.19
2019-03-22T01:43:57.557Z,102741.62
2019-03-22T01:46:27.782Z,102741.62
2019-03-22T01:48:58.000Z,102745.66
2019-03-22T01:51:28.293Z,102740.48
2019-03-22T01:53:58.535Z,102743.44
2019-03-22T01:56:28.758Z,102742.11
2019-03-22T01:58:58.970Z,102745.28
2019-03-22T02:01:29.190Z,102741.00
2019-03-22T02:03:59.414Z,102740.93
2019-03-22T02:06:29.692Z,102736.53
2019-03-22T02:08:59.918Z,102736.58
2019-03-22T02:11:30.125Z,102741.37
2019-03-22T02:14:00.355Z,102743.91
2019-03-22T02:16:30.571Z,102738.22
2019-03-22T02:19:00.948Z,102742.55
2019-03-22T02:21:31.161Z,102742.99
2019-03-22T02:24:01.458Z,102738.54
2019-03-22T02:26:32.011Z,102733.80
2019-03-22T02:29:02.232Z,102740.27
2019-03-22T02:31:32.531Z,102742.55
2019-03-22T02:34:02.760Z,102736.91
2019-03-22T02:36:32.973Z,102729.57
2019-03-22T02:39:03.635Z,102727.52
2019-03-22T02:41:34.392Z,102727.15
2019-03-22T02:44:04.637Z,102729.00
2019-03-22T02:46:35.803Z,102729.48
2019-03-22T02:49:06.038Z,102721.17
2019-03-22T02:51:36.248Z,102717.27
2019-03-22T02:54:06.587Z,102717.22
2019-03-22T02:56:37.777Z,102708.20
2019-03-22T02:59:08.183Z,102709.56
2019-03-22T03:01:38.421Z,102701.14
2019-03-22T03:04:08.658Z,102703.67
2019-03-22T03:06:38.867Z,102701.02
2019-03-22T03:09:09.096Z,102692.75
2019-03-22T03:11:39.312Z,102686.23
2019-03-22T03:14:10.480Z,102683.64
2019-03-22T03:16:40.699Z,102684.42
2019-03-22T03:19:10.972Z,102680.36
2019-03-22T03:21:41.179Z,102675.25
2019-03-22T03:24:11.680Z,102680.41
2019-03-22T03:26:41.895Z,102681.22
2019-03-22T03:29:12.353Z,102679.10
2019-03-22T03:31:42.584Z,102682.64
2019-03-22T03:34:12.805Z,102677.55
2019-03-22T03:36:43.293Z,102670.78
2019-03-22T03:39:13.513Z,102674.43
2019-03-22T03:41:44.089Z,102674.91
2019-03-22T03:44:14.361Z,102678.66
2019-03-22T03:46:44.607Z,102675.92
2019-03-22T03:49:14.798Z,102671.14
2019-03-22T03:51:45.031Z,102671.67
2019-03-22T03:54:15.224Z,102670.77
2019-03-22T03:56:46.407Z,102669.48
2019-03-22T03:59:16.608Z,102669.02
2019-03-22T04:01:46.826Z,102665.16
2019-03-22T04:04:17.265Z,102664.70
2019-03-22T04:06:47.734Z,102664.27
2019-03-22T04:09:17.938Z,102657.80
2019-03-22T04:11:48.152Z,102657.48
2019-03-22T04:14:18.358Z,102654.99
2019-03-22T04:16:48.568Z,102650.22
2019-03-22T04:19:18.810Z,102645.94
2019-03-22T04:21:49.291Z,102648.64
2019-03-22T04:24:19.520Z,102645.60
2019-03-22T04:26:49.716Z,102646.09
2019-03-22T04:29:19.954Z,102640.90
2019-03-22T04:31:50.164Z,102646.09
2019-03-22T04:34:20.372Z,102638.18
2019-03-22T04:36:50.580Z,102642.03
2019-03-22T04:39:20.774Z,102637.31
2019-03-22T04:41:50.978Z,102634.38
2019-03-22T04:44:21.174Z,102639.58
2019-03-22T04:46:51.935Z,102638.94
2019-03-22T04:49:23.078Z,102638.55
2019-03-22T04:51:55.125Z,102645.06
2019-03-22T04:54:28.637Z,102640.78
2019-03-22T04:56:59.204Z,102642.02
2019-03-22T04:59:30.145Z,102643.27
2019-03-22T05:02:02.480Z,102645.39
2019-03-22T05:04:34.233Z,102639.36
2019-03-22T05:07:05.970Z,102642.03
2019-03-22T05:09:37.733Z,102639.48
2019-03-22T05:12:10.843Z,102642.13
2019-03-22T05:14:43.093Z,102649.58
2019-03-22T05:17:15.158Z,102654.73
2019-03-22T05:19:50.820Z,102655.65
2019-03-22T05:22:23.037Z,102658.16
2019-03-22T05:24:55.107Z,102661.08
2019-03-22T05:27:26.564Z,102660.64
2019-03-22T05:29:59.267Z,102669.64
2019-03-22T05:32:29.502Z,102669.70
2019-03-22T05:34:59.704Z,102668.25
2019-03-22T05:37:30.154Z,102661.02
2019-03-22T05:40:00.428Z,102665.73
2019-03-22T05:42:30.593Z,102669.70
2019-03-22T05:45:00.786Z,102681.09
2019-03-22T05:47:30.997Z,102682.88
2019-03-22T05:50:01.196Z,102676.80
2019-03-22T05:52:31.414Z,102678.02
2019-03-22T05:55:01.694Z,102679.78
2019-03-22T05:57:31.887Z,102681.69
2019-03-22T06:00:02.222Z,102671.81
2019-03-22T06:02:32.505Z,102683.58
2019-03-22T06:05:02.728Z,102673.12
2019-03-22T06:07:32.929Z,102681.27
2019-03-22T06:10:03.153Z,102680.82
2019-03-22T06:12:33.354Z,102691.28
2019-03-22T06:15:04.366Z,102690.86
2019-03-22T06:17:34.599Z,102696.88
2019-03-22T06:20:05.904Z,102698.61
2019-03-22T06:22:36.164Z,102695.58
2019-03-22T06:25:06.764Z,102695.23
2019-03-22T06:27:36.958Z,102696.54
2019-03-22T06:30:08.436Z,102701.85
2019-03-22T06:32:38.788Z,102705.42
2019-03-22T06:35:09.153Z,102712.81
2019-03-22T06:37:39.373Z,102709.67
2019-03-22T06:40:09.864Z,102709.67
2019-03-22T06:42:40.058Z,102721.73
2019-03-22T06:45:10.485Z,102722.22
2019-03-22T06:47:40.691Z,102724.58
2019-03-22T06:50:11.253Z,102717.64
2019-03-22T06:52:41.461Z,102727.47
2019-03-22T06:55:11.814Z,102723.12
2019-03-22T06:57:42.096Z,102723.12
2019-03-22T07:00:12.466Z,102716.52
2019-03-22T07:02:42.671Z,102713.77
2019-03-22T07:05:13.795Z,102710.78
2019-03-22T07:07:44.025Z,102711.33
2019-03-22T07:10:14.404Z,102713.16
2019-03-22T07:12:44.604Z,102716.58
2019-03-22T07:15:14.979Z,102706.69
2019-03-22T07:17:45.178Z,102702.79
2019-03-22T07:20:15.476Z,102698.73
2019-03-22T07:22:45.923Z,102691.31
2019-03-22T07:25:16.403Z,102699.11
2019-03-22T07:27:46.601Z,102700.37
2019-03-22T07:30:19.096Z,102703.84
2019-03-22T07:32:50.426Z,102693.76
2019-03-22T07:35:23.545Z,102692.47
2019-03-22T07:37:53.745Z,102686.38
2019-03-22T07:40:23.991Z,102692.45
2019-03-22T07:42:54.182Z,102688.89
2019-03-22T07:45:24.432Z,102690.47
2019-03-22T07:47:55.881Z,102688.25
2019-03-22T07:50:26.289Z,102683.80
2019-03-22T07:52:56.499Z,102679.80
2019-03-22T07:55:26.751Z,102673.34
2019-03-22T07:57:56.948Z,102675.50
2019-03-22T08:00:31.152Z,102675.50
2019-03-22T08:02:59.345Z,102676.85
2019-03-22T08:05:29.557Z,102680.45
2019-03-22T08:07:59.782Z,102679.25
2019-03-22T08:10:30.006Z,102674.67
2019-03-22T08:13:00.245Z,102677.80
2019-03-22T08:15:32.144Z,102674.48
2019-03-22T08:18:02.713Z,102674.67
2019-03-22T08:20:32.911Z,102678.41
2019-03-22T08:23:04.693Z,102670.75
2019-03-22T08:25:34.901Z,102660.87
2019-03-22T08:28:05.693Z,102657.72
2019-03-22T08:30:42.929Z,102657.95
2019-03-22T08:33:08.815Z,102652.00
2019-03-22T08:35:39.114Z,102652.55
2019-03-22T08:38:09.282Z,102647.37
2019-03-22T08:40:39.496Z,102643.86
2019-03-22T08:43:09.801Z,102650.31
2019-03-22T08:45:40.016Z,102645.81
2019-03-22T08:48:10.214Z,102648.38
2019-03-22T08:50:40.416Z,102642.28
2019-03-22T08:53:10.818Z,102646.22
2019-03-22T08:55:41.019Z,102644.48
2019-03-22T08:58:11.286Z,102645.77
2019-03-22T09:00:41.599Z,102647.72
2019-03-22T09:03:11.888Z,102645.09
2019-03-22T09:05:42.099Z,102639.50
2019-03-22T09:08:12.333Z,102642.44
2019-03-22T09:10:42.621Z,102643.53
2019-03-22T09:13:12.859Z,102637.00
2019-03-22T09:15:43.046Z,102639.20
2019-03-22T09:18:15.531Z,102635.55
2019-03-22T09:20:46.279Z,102633.11
2019-03-22T09:23:16.466Z,102640.48
2019-03-22T09:25:46.772Z,102639.17
2019-03-22T09:28:17.006Z,102628.66
2019-03-22T09:30:47.297Z,102625.58
2019-03-22T09:33:17.474Z,102619.77
2019-03-22T09:35:48.799Z,102614.57
2019-03-22T09:38:18.962Z,102608.94
2019-03-22T09:40:49.406Z,102612.26
2019-03-22T09:43:19.606Z,102621.31
2019-03-22T09:45:49.838Z,102616.47
2019-03-22T09:48:20.103Z,102615.69
2019-03-22T09:50:50.395Z,102614.13
2019-03-22T09:53:20.592Z,102604.73
2019-03-22T09:55:50.913Z,102607.27
2019-03-22T09:58:21.126Z,102603.07
2019-03-22T10:00:51.395Z,102602.67
2019-03-22T10:03:21.557Z,102599.88
2019-03-22T10:05:52.050Z,102604.11
2019-03-22T10:08:22.242Z,102596.78
2019-03-22T10:10:52.460Z,102589.67
2019-03-22T10:13:22.697Z,102590.22
2019-03-22T10:15:52.891Z,102584.44
2019-03-22T10:18:23.364Z,102582.14
2019-03-22T10:20:53.619Z,102574.39
2019-03-22T10:23:23.892Z,102569.61
2019-03-22T10:25:54.074Z,102572.77
2019-03-22T10:28:24.309Z,102573.09
2019-03-22T10:30:54.539Z,102565.66
2019-03-22T10:33:24.790Z,102564.92
2019-03-22T10:35:55.320Z,102567.35
2019-03-22T10:38:31.928Z,102562.84
2019-03-22T10:40:57.448Z,102566.27
2019-03-22T10:43:33.553Z,102566.56
2019-03-22T10:46:09.359Z,102559.39
2019-03-22T10:48:40.879Z,102557.48
2019-03-22T10:51:11.197Z,102553.34
2019-03-22T10:53:41.468Z,102550.41
2019-03-22T10:56:12.756Z,102548.81
2019-03-22T10:58:43.035Z,102550.93
2019-03-22T11:01:13.524Z,102539.93
2019-03-22T11:03:43.759Z,102537.20
2019-03-22T11:06:14.029Z,102537.36
2019-03-22T11:08:44.491Z,102534.96
2019-03-22T11:11:14.706Z,102529.04
2019-03-22T11:13:44.927Z,102534.36
2019-03-22T11:16:15.207Z,102531.83
2019-03-22T11:18:45.494Z,102530.73
2019-03-22T11:21:15.739Z,102520.50
2019-03-22T11:23:46.028Z,102514.45
2019-03-22T11:26:16.232Z,102518.66
2019-03-22T11:28:46.455Z,102500.69
2019-03-22T11:31:16.777Z,102500.69
2019-03-22T11:33:46.993Z,102491.83
2019-03-22T11:36:17.249Z,102490.81
2019-03-22T11:38:47.434Z,102481.88
2019-03-22T11:41:17.665Z,102479.39
2019-03-22T11:43:47.883Z,102474.72
2019-03-22T11:46:18.179Z,102467.08
2019-03-22T11:48:48.471Z,102466.80
2019-03-22T11:51:18.760Z,102464.52
2019-03-22T11:53:49.262Z,102462.07
2019-03-22T11:56:19.495Z,102454.88
2019-03-22T11:58:49.717Z,102455.40
2019-03-22T12:01:22.307Z,102452.80
2019-03-22T12:03:51.941Z,102449.54
2019-03-22T12:06:22.146Z,102441.77
2019-03-22T12:08:52.350Z,102443.19
2019-03-22T12:11:22.574Z,102442.03
2019-03-22T12:13:52.891Z,102435.75
2019-03-22T12:16:23.124Z,102438.34
2019-03-22T12:18:53.342Z,102426.94
2019-03-22T12:21:23.641Z,102430.08
2019-03-22T12:23:53.863Z,102425.92
2019-03-22T12:26:24.090Z,102420.98
2019-03-22T12:28:54.326Z,102416.34
2019-03-22T12:31:24.537Z,102413.55
2019-03-22T12:33:54.798Z,102412.06
2019-03-22T12:36:25.013Z,102412.14
2019-03-22T12:38:55.252Z,102405.98
2019-03-22T12:41:25.462Z,102401.49
2019-03-22T12:43:55.688Z,102398.31
2019-03-22T12:46:25.904Z,102391.81
2019-03-22T12:48:56.114Z,102381.83
2019-03-22T12:51:26.331Z,102384.75
2019-03-22T12:53:56.590Z,102384.27
2019-03-22T12:56:26.886Z,102372.88
2019-03-22T12:58:57.102Z,102376.73
2019-03-22T13:01:28.432Z,102372.63
2019-03-22T13:03:58.701Z,102363.17
2019-03-22T13:06:28.921Z,102361.44
2019-03-22T13:08:59.134Z,102353.08
2019-03-22T13:11:29.365Z,102349.23
2019-03-22T13:13:59.654Z,102349.77
2019-03-22T13:16:29.873Z,102346.24
2019-03-22T13:19:00.100Z,102343.46
2019-03-22T13:21:30.322Z,102343.46
2019-03-22T13:24:00.554Z,102333.80
2019-03-22T13:26:31.747Z,102334.53
2019-03-22T13:29:01.966Z,102335.66
2019-03-22T13:31:32.178Z,102328.29
2019-03-22T13:34:02.652Z,102326.56
2019-03-22T13:36:32.896Z,102327.07
2019-03-22T13:39:03.910Z,102323.29
2019-03-22T13:41:34.309Z,102322.23
2019-03-22T13:44:05.534Z,102318.87
2019-03-22T13:46:40.217Z,102316.47
2019-03-22T13:49:07.693Z,102310.44
2019-03-22T13:51:37.924Z,102307.87
2019-03-22T13:54:08.159Z,102304.57
2019-03-22T13:56:38.381Z,102304.37
2019-03-22T13:59:08.636Z,102305.11
2019-03-22T14:01:38.843Z,102301.89
2019-03-22T14:04:09.287Z,102291.31
2019-03-22T14:06:39.505Z,102290.41
2019-03-22T14:09:09.929Z,102286.34
2019-03-22T14:11:40.378Z,102292.16
2019-03-22T14:14:10.568Z,102286.98
2019-03-22T14:16:40.777Z,102284.02
2019-03-22T14:19:10.972Z,102283.27
2019-03-22T14:21:41.166Z,102280.54
2019-03-22T14:24:11.631Z,102283.20
2019-03-22T14:26:41.814Z,102280.25
2019-03-22T14:29:12.031Z,102267.97
2019-03-22T14:31:42.485Z,102268.41
2019-03-22T14:34:12.756Z,102264.88
2019-03-22T14:36:42.970Z,102267.55
2019-03-22T14:39:14.136Z,102259.94
2019-03-22T14:41:44.365Z,102256.91
2019-03-22T14:44:14.565Z,102258.65
2019-03-22T14:46:44.765Z,102250.52
2019-03-22T14:49:14.976Z,102249.20
2019-03-22T14:51:45.328Z,102243.58
2019-03-22T14:54:15.527Z,102238.22
2019-03-22T14:56:45.752Z,102243.45
2019-03-22T14:59:16.210Z,102235.10
2019-03-22T15:01:46.423Z,102229.40
2019-03-22T15:04:16.647Z,102227.25
2019-03-22T15:06:46.949Z,102223.74
2019-03-22T15:09:17.304Z,102225.41
2019-03-22T15:11:47.503Z,102221.41
2019-03-22T15:14:36.732Z,102211.00
2019-03-22T15:17:19.811Z,102211.00
2019-03-22T15:20:05.338Z,102203.45
2019-03-22T15:23:13.548Z,102199.78
2019-03-22T15:26:01.415Z,102198.30
2019-03-22T15:29:02.173Z,102195.84
2019-03-22T15:31:50.302Z,102192.84
2019-03-22T15:34:38.295Z,102193.55
2019-03-22T15:37:33.440Z,102192.36
2019-03-22T15:40:04.595Z,102189.27
2019-03-22T15:42:35.363Z,102185.92
2019-03-22T15:45:07.784Z,102182.98
2019-03-22T15:47:38.035Z,102182.80
2019-03-22T15:50:09.910Z,102178.05
2019-03-22T15:52:40.105Z,102170.95
2019-03-22T15:55:11.558Z,102172.47
2019-03-22T15:57:41.932Z,102163.17
2019-03-22T16:00:15.212Z,102158.86
2019-03-22T16:02:45.736Z,102159.81
2019-03-22T16:05:16.369Z,102150.19
2019-03-22T16:07:47.731Z,102154.38
2019-03-22T16:10:18.010Z,102155.13
2019-03-22T16:12:48.216Z,102150.71
2019-03-22T16:15:18.571Z,102151.33
2019-03-22T16:17:48.781Z,102150.04
2019-03-22T16:20:19.068Z,102149.47
2019-03-22T16:22:49.256Z,102139.13
2019-03-22T16:25:19.472Z,102136.27
2019-03-22T16:27:49.801Z,102124.70
2019-03-22T16:30:20.300Z,102122.80
2019-03-22T16:32:50.508Z,102122.80
2019-03-22T16:35:20.714Z,102124.40
2019-03-22T16:37:51.106Z,102125.86
2019-03-22T16:40:24.523Z,102121.80
2019-03-22T16:42:53.289Z,102117.11
2019-03-22T16:45:40.453Z,102118.53
2019-03-22T16:48:10.884Z,102110.38
2019-03-22T16:50:42.302Z,102114.11
2019-03-22T16:53:12.799Z,102115.69
2019-03-22T16:55:42.991Z,102114.89
2019-03-22T16:58:13.274Z,102106.12
2019-03-22T17:00:43.641Z,102110.46
2019-03-22T17:03:13.954Z,102106.63
2019-03-22T17:05:44.252Z,102112.17
2019-03-22T17:08:14.447Z,102105.94
2019-03-22T17:10:44.936Z,102106.04
2019-03-22T17:13:15.189Z,102105.16
2019-03-22T17:15:45.485Z,102105.39
2019-03-22T17:18:15.687Z,102107.08
2019-03-22T17:20:45.917Z,102110.20
2019-03-22T17:23:16.185Z,102112.97
2019-03-22T17:25:46.388Z,102112.84
2019-03-22T17:28:16.844Z,102113.78
2019-03-22T17:30:47.281Z,102115.10
2019-03-22T17:33:17.541Z,102123.03
2019-03-22T17:35:48.725Z,102118.44
2019-03-22T17:38:19.179Z,102113.61
2019-03-22T17:40:49.599Z,102118.63
2019-03-22T17:43:19.835Z,102121.00
2019-03-22T17:45:50.452Z,102118.56
2019-03-22T17:48:20.667Z,102117.18
2019-03-22T17:50:50.892Z,102120.98
2019-03-22T17:53:21.186Z,102125.26
2019-03-22T17:55:52.351Z,102122.07
2019-03-22T17:58:22.560Z,102125.86
2019-03-22T18:00:52.826Z,102122.08
2019-03-22T18:03:24.275Z,102130.41
2019-03-22T18:05:54.477Z,102125.97
2019-03-22T18:08:24.685Z,102132.38
2019-03-22T18:10:54.868Z,102130.02
2019-03-22T18:13:25.086Z,102132.31
2019-03-22T18:15:55.280Z,102135.52
2019-03-22T18:18:25.552Z,102137.56
2019-03-22T18:20:56.047Z,102137.82
2019-03-22T18:23:35.425Z,102135.44
2019-03-22T18:25:58.235Z,102136.26
2019-03-22T18:28:28.450Z,102137.89
2019-03-22T18:30:58.650Z,102139.17
2019-03-22T18:33:29.022Z,102146.31
2019-03-22T18:35:59.216Z,102144.94
2019-03-22T18:38:29.429Z,102146.47
2019-03-22T18:40:59.640Z,102148.58
2019-03-22T18:43:29.924Z,102154.05
2019-03-22T18:46:00.133Z,102160.08
2019-03-22T18:48:30.331Z,102155.19
2019-03-22T18:51:00.547Z,102155.37
2019-03-22T18:53:31.286Z,102157.45
2019-03-22T18:56:01.559Z,102167.40
2019-03-22T18:58:31.778Z,102165.30
2019-03-22T19:01:02.182Z,102162.39
2019-03-22T19:03:32.419Z,102160.95
2019-03-22T19:06:02.616Z,102163.58
2019-03-22T19:08:43.415Z,102171.06
2019-03-22T19:11:13.699Z,102165.02
2019-03-22T19:13:44.098Z,102165.92
2019-03-22T19:16:14.289Z,102159.67
2019-03-22T19:18:44.500Z,102157.95
2019-03-22T19:21:14.690Z,102160.47
2019-03-22T19:23:45.060Z,102152.09
2019-03-22T19:26:15.485Z,102153.28
2019-03-22T19:28:45.688Z,102152.32
2019-03-22T19:31:15.953Z,102151.45
2019-03-22T19:33:46.175Z,102155.73
2019-03-22T19:36:16.437Z,102151.73
2019-03-22T19:38:46.645Z,102148.53
2019-03-22T19:41:16.871Z,102145.09
2019-03-22T19:43:47.086Z,102145.61
2019-03-22T19:46:17.283Z,102150.12
2019-03-22T19:48:47.490Z,102145.75
2019-03-22T19:51:17.699Z,102146.94
2019-03-22T19:53:48.222Z,102145.19
2019-03-22T19:56:18.433Z,102138.79
2019-03-22T19:58:48.632Z,102141.73
2019-03-22T20:01:19.127Z,102142.42
2019-03-22T20:03:49.344Z,102147.98
2019-03-22T20:06:19.575Z,102142.02
2019-03-22T20:08:49.793Z,102142.78
2019-03-22T20:11:20.100Z,102143.95
2019-03-22T20:13:50.272Z,102145.03
2019-03-22T20:16:20.478Z,102147.02
2019-03-22T20:18:50.687Z,102149.50
2019-03-22T20:21:20.905Z,102142.94
2019-03-22T20:23:53.856Z,102147.58
2019-03-22T20:26:23.012Z,102143.55
2019-03-22T20:29:10.686Z,102138.41
2019-03-22T20:31:40.912Z,102133.23
2019-03-22T20:34:11.104Z,102124.73
2019-03-22T20:36:43.670Z,102121.88
2019-03-22T20:39:13.191Z,102124.75
2019-03-22T20:41:43.476Z,102118.72
2019-03-22T20:44:13.676Z,102118.72
2019-03-22T20:46:44.033Z,102121.55
2019-03-22T20:49:14.232Z,102124.97
2019-03-22T20:51:44.442Z,102120.88
2019-03-22T20:54:15.117Z,102118.11
2019-03-22T20:56:45.402Z,102126.58
2019-03-22T20:59:15.623Z,102125.92
2019-03-22T21:01:46.077Z,102120.53
2019-03-22T21:04:16.264Z,102125.11
2019-03-22T21:06:46.509Z,102129.32
2019-03-22T21:09:16.733Z,102120.45
2019-03-22T21:11:47.789Z,102123.75
2019-03-22T21:14:17.981Z,102127.42
2019-03-22T21:16:49.177Z,102128.08
2019-03-22T21:19:19.614Z,102129.14
2019-03-22T21:21:49.992Z,102131.73
2019-03-22T21:24:20.182Z,102127.61
2019-03-22T21:26:50.620Z,102119.66
2019-03-22T21:29:20.817Z,102119.66
2019-03-22T21:31:51.027Z,102121.09
2019-03-22T21:34:21.222Z,102127.77
2019-03-22T21:36:51.491Z,102127.64
2019-03-22T21:39:21.692Z,102126.68
2019-03-22T21:41:51.930Z,102130.41
2019-03-22T21:44:22.125Z,102129.22
2019-03-22T21:46:52.597Z,102130.67
2019-03-22T21:49:22.819Z,102129.45
2019-03-22T21:51:53.019Z,102136.16
2019-03-22T21:54:23.257Z,102133.55
2019-03-22T21:56:53.469Z,102129.08
2019-03-22T21:59:23.691Z,102132.36
2019-03-22T22:01:53.905Z,102133.77
2019-03-22T22:04:24.101Z,102131.75
2019-03-22T22:06:54.388Z,102136.13
2019-03-22T22:09:24.578Z,102131.95
2019-03-22T22:11:55.042Z,102129.38
2019-03-22T22:14:25.237Z,102126.08
2019-03-22T22:16:55.458Z,102128.03
2019-03-22T22:19:25.641Z,102128.34
2019-03-22T22:21:56.304Z,102122.31
2019-03-22T22:24:27.009Z,102125.80
2019-03-22T22:26:57.477Z,102122.98
2019-03-22T22:29:27.736Z,102119.83
2019-03-22T22:31:58.212Z,102121.76
2019-03-22T22:34:29.375Z,102126.16
2019-03-22T22:36:59.604Z,102136.55
2019-03-22T22:39:29.929Z,102136.55
2019-03-22T22:42:00.122Z,102143.01
2019-03-22T22:44:30.332Z,102138.23
2019-03-22T22:47:00.533Z,102141.91
2019-03-22T22:49:30.752Z,102141.66
2019-03-22T22:52:01.215Z,102138.59
2019-03-22T22:54:31.491Z,102142.14
2019-03-22T22:57:01.710Z,102150.80
2019-03-22T22:59:31.914Z,102146.11
2019-03-22T23:02:02.202Z,102145.73
2019-03-22T23:04:32.519Z,102143.20
2019-03-22T23:07:07.613Z,102143.92
2019-03-22T23:09:40.976Z,102141.43
2019-03-22T23:12:11.176Z,102141.70
2019-03-22T23:14:41.544Z,102140.03
2019-03-22T23:17:11.975Z,102140.67
2019-03-22T23:19:42.175Z,102137.51
2019-03-22T23:22:12.365Z,102156.78
2019-03-22T23:24:42.790Z,102150.36
2019-03-22T23:27:13.036Z,102157.12
2019-03-22T23:29:44.209Z,102156.91
2019-03-22T23:32:14.392Z,102160.98
2019-03-22T23:34:44.749Z,102164.75
2019-03-22T23:37:14.947Z,102171.17
2019-03-22T23:39:45.177Z,102172.55
2019-03-22T23:42:15.369Z,102174.11
2019-03-22T23:44:45.586Z,102174.69
2019-03-22T23:47:15.773Z,102187.97
2019-03-22T23:49:46.010Z,102194.30
2019-03-22T23:52:16.206Z,102211.11
2019-03-22T23:54:46.655Z,102215.55
2019-03-22T23:57:16.865Z,102218.12
2019-03-22T23:59:47.061Z,102216.27
